createdAt,value
2018-06-12T00:00:07.276Z,4.12
2018-06-12T00:00:19.835Z,4.12
2018-06-12T00:00:32.281Z,4.12
2018-06-12T00:00:44.734Z,4.12
2018-06-12T00:00:57.429Z,4.12
2018-06-12T00:01:09.909Z,4.12
2018-06-12T00:01:22.347Z,4.12
2018-06-12T00:01:34.758Z,4.12
2018-06-12T00:01:47.174Z,4.12
2018-06-12T00:01:59.581Z,4.12
2018-06-12T00:02:11.975Z,4.12
2018-06-12T00:02:24.374Z,4.12
2018-06-12T00:02:36.912Z,4.12
2018-06-12T00:02:49.338Z,4.12
2018-06-12T00:03:01.782Z,4.12
2018-06-12T00:03:14.217Z,4.12
2018-06-12T00:03:26.685Z,4.12
2018-06-12T00:03:39.085Z,4.12
2018-06-12T00:03:51.500Z,4.12
2018-06-12T00:04:03.904Z,4.12
2018-06-12T00:04:16.310Z,4.12
2018-06-12T00:04:28.706Z,4.12
2018-06-12T00:04:41.108Z,4.43
2018-06-12T00:04:53.559Z,4.43
2018-06-12T00:05:05.979Z,4.43
2018-06-12T00:05:18.448Z,4.43
2018-06-12T00:05:30.859Z,4.43
2018-06-12T00:05:43.270Z,4.43
2018-06-12T00:05:55.754Z,4.43
2018-06-12T00:06:08.183Z,4.43
2018-06-12T00:06:20.590Z,4.43
2018-06-12T00:06:32.988Z,4.43
2018-06-12T00:06:45.413Z,4.43
2018-06-12T00:06:58.017Z,4.43
2018-06-12T00:07:10.409Z,4.43
2018-06-12T00:07:22.826Z,4.43
2018-06-12T00:07:35.245Z,4.43
2018-06-12T00:07:47.659Z,4.43
2018-06-12T00:08:00.077Z,4.43
2018-06-12T00:08:12.475Z,4.43
2018-06-12T00:08:24.906Z,4.43
2018-06-12T00:08:37.310Z,4.43
2018-06-12T00:08:49.715Z,4.43
2018-06-12T00:09:02.140Z,4.43
2018-06-12T00:09:14.552Z,4.43
2018-06-12T00:09:26.995Z,4.43
2018-06-12T00:09:39.398Z,4.43
2018-06-12T00:09:51.825Z,4.43
2018-06-12T00:10:04.215Z,4.43
2018-06-12T00:10:16.636Z,4.43
2018-06-12T00:10:29.065Z,4.43
2018-06-12T00:10:41.482Z,4.43
2018-06-12T00:10:53.902Z,4.43
2018-06-12T00:11:06.325Z,4.43
2018-06-12T00:11:18.720Z,4.43
2018-06-12T00:11:31.141Z,4.43
2018-06-12T00:11:43.542Z,4.43
2018-06-12T00:11:56.006Z,4.43
2018-06-12T00:12:08.421Z,4.43
2018-06-12T00:12:20.829Z,4.43
2018-06-12T00:12:33.228Z,4.43
2018-06-12T00:12:45.638Z,4.43
2018-06-12T00:12:58.044Z,4.43
2018-06-12T00:13:10.516Z,4.43
2018-06-12T00:13:22.938Z,4.43
2018-06-12T00:13:35.347Z,4.43
2018-06-12T00:13:47.768Z,4.43
2018-06-12T00:14:00.180Z,4.43
2018-06-12T00:14:12.627Z,4.43
2018-06-12T00:14:25.024Z,4.43
2018-06-12T00:14:37.420Z,4.43
2018-06-12T00:14:49.822Z,5.13
2018-06-12T00:15:02.252Z,5.13
2018-06-12T00:15:14.669Z,5.13
2018-06-12T00:15:27.093Z,5.13
2018-06-12T00:15:39.507Z,5.13
2018-06-12T00:15:51.902Z,5.13
2018-06-12T00:16:04.303Z,5.13
2018-06-12T00:16:16.705Z,5.13
2018-06-12T00:16:29.107Z,5.13
2018-06-12T00:16:41.559Z,5.13
2018-06-12T00:16:54.003Z,5.13
2018-06-12T00:17:06.413Z,5.13
2018-06-12T00:17:18.828Z,5.13
2018-06-12T00:17:31.234Z,5.13
2018-06-12T00:17:43.628Z,5.13
2018-06-12T00:17:56.172Z,5.13
2018-06-12T00:18:08.604Z,5.13
2018-06-12T00:18:21.024Z,5.13
2018-06-12T00:18:33.424Z,5.13
2018-06-12T00:18:45.827Z,5.13
2018-06-12T00:18:58.257Z,5.13
2018-06-12T00:19:10.733Z,5.13
2018-06-12T00:19:23.139Z,5.13
2018-06-12T00:19:35.536Z,5.13
2018-06-12T00:19:47.984Z,5.13
2018-06-12T00:20:00.687Z,5.13
2018-06-12T00:20:13.110Z,5.13
2018-06-12T00:20:25.522Z,5.13
2018-06-12T00:20:37.934Z,5.13
2018-06-12T00:20:50.331Z,5.13
2018-06-12T00:21:02.734Z,5.13
2018-06-12T00:21:15.172Z,5.13
2018-06-12T00:21:27.581Z,5.13
2018-06-12T00:21:39.989Z,5.13
2018-06-12T00:21:52.396Z,5.13
2018-06-12T00:22:04.794Z,5.13
2018-06-12T00:22:17.194Z,5.13
2018-06-12T00:22:29.617Z,5.13
2018-06-12T00:22:42.028Z,5.13
2018-06-12T00:22:54.436Z,5.13
2018-06-12T00:23:06.827Z,5.13
2018-06-12T00:23:19.267Z,5.13
2018-06-12T00:23:31.715Z,5.13
2018-06-12T00:23:44.273Z,5.13
2018-06-12T00:23:56.712Z,5.13
2018-06-12T00:24:09.116Z,5.13
2018-06-12T00:24:21.538Z,5.13
2018-06-12T00:24:33.979Z,5.13
2018-06-12T00:24:46.363Z,4.5
2018-06-12T00:24:58.754Z,4.5
2018-06-12T00:25:11.192Z,4.5
2018-06-12T00:25:23.800Z,4.5
2018-06-12T00:25:36.237Z,4.5
2018-06-12T00:25:48.626Z,4.5
2018-06-12T00:26:01.046Z,4.5
2018-06-12T00:26:13.456Z,4.5
2018-06-12T00:26:25.870Z,4.5
2018-06-12T00:26:38.307Z,4.5
2018-06-12T00:26:50.703Z,4.5
2018-06-12T00:27:03.112Z,4.5
2018-06-12T00:27:15.514Z,4.5
2018-06-12T00:27:27.923Z,4.5
2018-06-12T00:27:40.322Z,4.5
2018-06-12T00:27:52.717Z,4.5
2018-06-12T00:28:05.116Z,4.5
2018-06-12T00:28:17.522Z,4.5
2018-06-12T00:28:29.945Z,4.5
2018-06-12T00:28:42.359Z,4.5
2018-06-12T00:28:54.780Z,4.5
2018-06-12T00:29:07.191Z,4.5
2018-06-12T00:29:19.659Z,4.5
2018-06-12T00:29:32.060Z,4.5
2018-06-12T00:29:44.512Z,4.5
2018-06-12T00:29:56.938Z,4.5
2018-06-12T00:30:09.368Z,4.5
2018-06-12T00:30:21.851Z,4.5
2018-06-12T00:30:34.262Z,4.5
2018-06-12T00:30:46.642Z,4.5
2018-06-12T00:30:59.059Z,4.5
2018-06-12T00:31:11.460Z,4.5
2018-06-12T00:31:23.869Z,4.5
2018-06-12T00:31:36.316Z,4.5
2018-06-12T00:31:48.706Z,4.5
2018-06-12T00:32:01.096Z,4.5
2018-06-12T00:32:13.507Z,4.5
2018-06-12T00:32:25.905Z,4.5
2018-06-12T00:32:38.289Z,4.5
2018-06-12T00:32:50.689Z,4.5
2018-06-12T00:33:03.077Z,4.5
2018-06-12T00:33:15.492Z,4.5
2018-06-12T00:33:27.884Z,4.5
2018-06-12T00:33:40.310Z,4.5
2018-06-12T00:33:52.715Z,4.5
2018-06-12T00:34:05.117Z,4.5
2018-06-12T00:34:17.538Z,4.5
2018-06-12T00:34:29.974Z,4.5
2018-06-12T00:34:42.391Z,5.12
2018-06-12T00:34:54.792Z,5.12
2018-06-12T00:35:07.217Z,5.12
2018-06-12T00:35:19.670Z,5.12
2018-06-12T00:35:32.059Z,5.12
2018-06-12T00:35:44.464Z,5.12
2018-06-12T00:35:56.910Z,5.12
2018-06-12T00:36:09.347Z,5.12
2018-06-12T00:36:21.772Z,5.12
2018-06-12T00:36:34.206Z,5.12
2018-06-12T00:36:46.641Z,5.12
2018-06-12T00:36:59.116Z,5.12
2018-06-12T00:37:11.521Z,5.12
2018-06-12T00:37:23.945Z,5.12
2018-06-12T00:37:36.355Z,5.12
2018-06-12T00:37:48.756Z,5.12
2018-06-12T00:38:01.259Z,5.12
2018-06-12T00:38:13.664Z,5.12
2018-06-12T00:38:26.205Z,5.12
2018-06-12T00:38:38.667Z,5.12
2018-06-12T00:38:51.070Z,5.12
2018-06-12T00:39:03.464Z,5.12
2018-06-12T00:39:15.905Z,5.12
2018-06-12T00:39:28.334Z,5.12
2018-06-12T00:39:40.740Z,5.12
2018-06-12T00:39:53.139Z,5.12
2018-06-12T00:40:05.567Z,5.12
2018-06-12T00:40:17.975Z,5.12
2018-06-12T00:40:30.391Z,5.12
2018-06-12T00:40:42.805Z,5.12
2018-06-12T00:40:55.205Z,5.12
2018-06-12T00:41:07.604Z,5.12
2018-06-12T00:41:20.014Z,5.12
2018-06-12T00:41:32.480Z,5.12
2018-06-12T00:41:44.878Z,5.12
2018-06-12T00:41:57.296Z,5.12
2018-06-12T00:42:09.723Z,5.12
2018-06-12T00:42:22.159Z,5.12
2018-06-12T00:42:34.563Z,5.12
2018-06-12T00:42:47.015Z,5.12
2018-06-12T00:42:59.410Z,5.12
2018-06-12T00:43:11.813Z,5.12
2018-06-12T00:43:24.205Z,5.12
2018-06-12T00:43:36.643Z,5.12
2018-06-12T00:43:49.063Z,5.12
2018-06-12T00:44:01.478Z,5.12
2018-06-12T00:44:13.919Z,5.12
2018-06-12T00:44:26.355Z,5.12
2018-06-12T00:44:38.778Z,5.12
2018-06-12T00:44:51.174Z,5.28
2018-06-12T00:45:03.582Z,5.28
2018-06-12T00:45:16.019Z,5.28
2018-06-12T00:45:28.408Z,5.28
2018-06-12T00:45:40.806Z,5.28
2018-06-12T00:45:53.198Z,5.28
2018-06-12T00:46:05.828Z,5.28
2018-06-12T00:46:18.270Z,5.28
2018-06-12T00:46:30.697Z,5.28
2018-06-12T00:46:43.131Z,5.28
2018-06-12T00:46:55.557Z,5.28
2018-06-12T00:47:08.030Z,5.28
2018-06-12T00:47:20.472Z,5.28
2018-06-12T00:47:32.865Z,5.28
2018-06-12T00:47:45.272Z,5.28
2018-06-12T00:47:57.751Z,5.28
2018-06-12T00:48:10.200Z,5.28
2018-06-12T00:48:22.779Z,5.28
2018-06-12T00:48:35.409Z,5.28
2018-06-12T00:48:47.846Z,5.28
2018-06-12T00:49:00.292Z,5.28
2018-06-12T00:49:12.749Z,5.28
2018-06-12T00:49:25.191Z,5.28
2018-06-12T00:49:37.593Z,5.28
2018-06-12T00:49:50.017Z,5.28
2018-06-12T00:50:02.431Z,5.28
2018-06-12T00:50:14.874Z,5.28
2018-06-12T00:50:27.276Z,5.28
2018-06-12T00:50:39.696Z,5.28
2018-06-12T00:50:52.147Z,5.28
2018-06-12T00:51:04.539Z,5.28
2018-06-12T00:51:17.006Z,5.28
2018-06-12T00:51:29.483Z,5.28
2018-06-12T00:51:41.894Z,5.28
2018-06-12T00:51:54.328Z,5.28
2018-06-12T00:52:06.798Z,5.28
2018-06-12T00:52:19.225Z,5.28
2018-06-12T00:52:31.624Z,5.28
2018-06-12T00:52:44.034Z,5.28
2018-06-12T00:52:56.433Z,5.28
2018-06-12T00:53:08.860Z,5.28
2018-06-12T00:53:21.301Z,5.28
2018-06-12T00:53:33.710Z,5.28
2018-06-12T00:53:46.119Z,5.28
2018-06-12T00:53:58.520Z,5.28
2018-06-12T00:54:10.927Z,5.28
2018-06-12T00:54:23.343Z,5.28
2018-06-12T00:54:35.818Z,5.28
2018-06-12T00:54:48.248Z,5
2018-06-12T00:55:00.683Z,5
2018-06-12T00:55:13.117Z,5
2018-06-12T00:55:25.554Z,5
2018-06-12T00:55:37.946Z,5
2018-06-12T00:55:50.434Z,5
2018-06-12T00:56:02.886Z,5
2018-06-12T00:56:15.313Z,5
2018-06-12T00:56:27.737Z,5
2018-06-12T00:56:40.194Z,5
2018-06-12T00:56:52.711Z,5
2018-06-12T00:57:05.194Z,5
2018-06-12T00:57:17.603Z,5
2018-06-12T00:57:30.024Z,5
2018-06-12T00:57:42.420Z,5
2018-06-12T00:57:54.848Z,5
2018-06-12T00:58:07.419Z,5
2018-06-12T00:58:19.852Z,5
2018-06-12T00:58:32.263Z,5
2018-06-12T00:58:44.683Z,5
2018-06-12T00:58:57.097Z,5
2018-06-12T00:59:09.632Z,5
2018-06-12T00:59:22.068Z,5
2018-06-12T00:59:34.452Z,5
2018-06-12T00:59:46.862Z,5
2018-06-12T00:59:59.261Z,5
2018-06-12T01:00:11.695Z,5
2018-06-12T01:00:24.137Z,5
2018-06-12T01:00:36.588Z,5
2018-06-12T01:00:49.054Z,5
2018-06-12T01:01:01.628Z,5
2018-06-12T01:01:14.052Z,5
2018-06-12T01:01:26.473Z,5
2018-06-12T01:01:38.872Z,5
2018-06-12T01:01:51.306Z,5
2018-06-12T01:02:03.851Z,5
2018-06-12T01:02:16.276Z,5
2018-06-12T01:02:28.820Z,5
2018-06-12T01:02:41.221Z,5
2018-06-12T01:02:53.632Z,5
2018-06-12T01:03:06.039Z,5
2018-06-12T01:03:18.436Z,5
2018-06-12T01:03:30.846Z,5
2018-06-12T01:03:43.313Z,5
2018-06-12T01:03:55.724Z,5
2018-06-12T01:04:08.179Z,5
2018-06-12T01:04:20.573Z,5
2018-06-12T01:04:32.977Z,5
2018-06-12T01:04:45.439Z,5.4
2018-06-12T01:04:57.857Z,5.4
2018-06-12T01:05:10.276Z,5.4
2018-06-12T01:05:22.696Z,5.4
2018-06-12T01:05:35.082Z,5.4
2018-06-12T01:05:47.518Z,5.4
2018-06-12T01:05:59.945Z,5.4
2018-06-12T01:06:12.370Z,5.4
2018-06-12T01:06:24.760Z,5.4
2018-06-12T01:06:37.213Z,5.4
2018-06-12T01:06:49.760Z,5.4
2018-06-12T01:07:02.173Z,5.4
2018-06-12T01:07:14.607Z,5.4
2018-06-12T01:07:27.048Z,5.4
2018-06-12T01:07:39.469Z,5.4
2018-06-12T01:07:51.885Z,5.4
2018-06-12T01:08:04.294Z,5.4
2018-06-12T01:08:16.742Z,5.4
2018-06-12T01:08:29.164Z,5.4
2018-06-12T01:08:41.558Z,5.4
2018-06-12T01:08:53.958Z,5.4
2018-06-12T01:09:06.387Z,5.4
2018-06-12T01:09:18.804Z,5.4
2018-06-12T01:09:31.217Z,5.4
2018-06-12T01:09:43.635Z,5.4
2018-06-12T01:09:56.050Z,5.4
2018-06-12T01:10:08.476Z,5.4
2018-06-12T01:10:20.922Z,5.4
2018-06-12T01:10:33.375Z,5.4
2018-06-12T01:10:45.782Z,5.4
2018-06-12T01:10:58.203Z,5.4
2018-06-12T01:11:10.659Z,5.4
2018-06-12T01:11:23.108Z,5.4
2018-06-12T01:11:35.517Z,5.4
2018-06-12T01:11:47.933Z,5.4
2018-06-12T01:12:00.390Z,5.4
2018-06-12T01:12:12.814Z,5.4
2018-06-12T01:12:25.243Z,5.4
2018-06-12T01:12:37.642Z,5.4
2018-06-12T01:12:50.119Z,5.4
2018-06-12T01:13:02.529Z,5.4
2018-06-12T01:13:14.934Z,5.4
2018-06-12T01:13:27.381Z,5.4
2018-06-12T01:13:39.819Z,5.4
2018-06-12T01:13:52.225Z,5.4
2018-06-12T01:14:04.632Z,5.4
2018-06-12T01:14:17.083Z,5.4
2018-06-12T01:14:29.505Z,5.4
2018-06-12T01:14:41.914Z,5.4
2018-06-12T01:14:54.364Z,5.31
2018-06-12T01:15:06.833Z,5.31
2018-06-12T01:15:19.266Z,5.31
2018-06-12T01:15:31.667Z,5.31
2018-06-12T01:15:44.084Z,5.31
2018-06-12T01:15:56.526Z,5.31
2018-06-12T01:16:08.949Z,5.31
2018-06-12T01:16:21.339Z,5.31
2018-06-12T01:16:33.747Z,5.31
2018-06-12T01:16:46.170Z,5.31
2018-06-12T01:16:58.566Z,5.31
2018-06-12T01:17:10.979Z,5.31
2018-06-12T01:17:23.428Z,5.31
2018-06-12T01:17:35.960Z,5.31
2018-06-12T01:17:48.359Z,5.31
2018-06-12T01:18:00.901Z,5.31
2018-06-12T01:18:13.309Z,5.31
2018-06-12T01:18:25.727Z,5.31
2018-06-12T01:18:38.135Z,5.31
2018-06-12T01:18:50.547Z,5.31
2018-06-12T01:19:02.953Z,5.31
2018-06-12T01:19:15.380Z,5.31
2018-06-12T01:19:27.799Z,5.31
2018-06-12T01:19:40.190Z,5.31
2018-06-12T01:19:52.759Z,5.31
2018-06-12T01:20:05.323Z,5.31
2018-06-12T01:20:17.731Z,5.31
2018-06-12T01:20:30.144Z,5.31
2018-06-12T01:20:42.569Z,5.31
2018-06-12T01:20:55.020Z,5.31
2018-06-12T01:21:07.438Z,5.31
2018-06-12T01:21:19.854Z,5.31
2018-06-12T01:21:32.291Z,5.31
2018-06-12T01:21:44.719Z,5.31
2018-06-12T01:21:57.130Z,5.31
2018-06-12T01:22:09.548Z,5.31
2018-06-12T01:22:21.947Z,5.31
2018-06-12T01:22:34.345Z,5.31
2018-06-12T01:22:46.787Z,5.31
2018-06-12T01:22:59.191Z,5.31
2018-06-12T01:23:11.741Z,5.31
2018-06-12T01:23:24.183Z,5.31
2018-06-12T01:23:36.606Z,5.31
2018-06-12T01:23:49.019Z,5.31
2018-06-12T01:24:01.439Z,5.31
2018-06-12T01:24:13.863Z,5.31
2018-06-12T01:24:26.277Z,5.31
2018-06-12T01:24:38.687Z,5.31
2018-06-12T01:24:51.114Z,5.27
2018-06-12T01:25:03.564Z,5.27
2018-06-12T01:25:15.979Z,5.27
2018-06-12T01:25:28.554Z,5.27
2018-06-12T01:25:40.999Z,5.27
2018-06-12T01:25:53.399Z,5.27
2018-06-12T01:26:05.812Z,5.27
2018-06-12T01:26:18.232Z,5.27
2018-06-12T01:26:30.650Z,5.27
2018-06-12T01:26:43.037Z,5.27
2018-06-12T01:26:55.467Z,5.27
2018-06-12T01:27:07.887Z,5.27
2018-06-12T01:27:20.312Z,5.27
2018-06-12T01:27:32.715Z,5.27
2018-06-12T01:27:45.111Z,5.27
2018-06-12T01:27:57.510Z,5.27
2018-06-12T01:28:09.942Z,5.27
2018-06-12T01:28:22.355Z,5.27
2018-06-12T01:28:34.800Z,5.27
2018-06-12T01:28:47.237Z,5.27
2018-06-12T01:28:59.637Z,5.27
2018-06-12T01:29:12.186Z,5.27
2018-06-12T01:29:24.648Z,5.27
2018-06-12T01:29:37.061Z,5.27
2018-06-12T01:29:49.507Z,5.27
2018-06-12T01:30:01.922Z,5.27
2018-06-12T01:30:14.339Z,5.27
2018-06-12T01:30:26.768Z,5.27
2018-06-12T01:30:39.183Z,5.27
2018-06-12T01:30:51.578Z,5.27
2018-06-12T01:31:03.973Z,5.27
2018-06-12T01:31:16.397Z,5.27
2018-06-12T01:31:28.806Z,5.27
2018-06-12T01:31:41.229Z,5.27
2018-06-12T01:31:53.652Z,5.27
2018-06-12T01:32:06.114Z,5.27
2018-06-12T01:32:18.534Z,5.27
2018-06-12T01:32:30.941Z,5.27
2018-06-12T01:32:43.343Z,5.27
2018-06-12T01:32:55.773Z,5.27
2018-06-12T01:33:08.202Z,5.27
2018-06-12T01:33:20.640Z,5.27
2018-06-12T01:33:33.061Z,5.27
2018-06-12T01:33:45.491Z,5.27
2018-06-12T01:33:57.891Z,5.27
2018-06-12T01:34:10.295Z,5.27
2018-06-12T01:34:22.689Z,5.27
2018-06-12T01:34:35.078Z,5.27
2018-06-12T01:34:47.469Z,5.94
2018-06-12T01:34:59.890Z,5.94
2018-06-12T01:35:12.292Z,5.94
2018-06-12T01:35:24.693Z,5.94
2018-06-12T01:35:37.099Z,5.94
2018-06-12T01:35:49.585Z,5.94
2018-06-12T01:36:01.986Z,5.94
2018-06-12T01:36:14.477Z,5.94
2018-06-12T01:36:26.891Z,5.94
2018-06-12T01:36:39.322Z,5.94
2018-06-12T01:36:51.726Z,5.94
2018-06-12T01:37:04.137Z,5.94
2018-06-12T01:37:16.534Z,5.94
2018-06-12T01:37:29.096Z,5.94
2018-06-12T01:37:41.507Z,5.94
2018-06-12T01:37:53.927Z,5.94
2018-06-12T01:38:06.323Z,5.94
2018-06-12T01:38:18.874Z,5.94
2018-06-12T01:38:31.281Z,5.94
2018-06-12T01:38:43.680Z,5.94
2018-06-12T01:38:56.112Z,5.94
2018-06-12T01:39:08.555Z,5.94
2018-06-12T01:39:20.975Z,5.94
2018-06-12T01:39:33.370Z,5.94
2018-06-12T01:39:45.779Z,5.94
2018-06-12T01:39:58.183Z,5.94
2018-06-12T01:40:10.607Z,5.94
2018-06-12T01:40:23.169Z,5.94
2018-06-12T01:40:35.585Z,5.94
2018-06-12T01:40:47.996Z,5.94
2018-06-12T01:41:00.416Z,5.94
2018-06-12T01:41:12.914Z,5.94
2018-06-12T01:41:25.328Z,5.94
2018-06-12T01:41:37.785Z,5.94
2018-06-12T01:41:50.190Z,5.94
2018-06-12T01:42:02.601Z,5.94
2018-06-12T01:42:15.025Z,5.94
2018-06-12T01:42:27.431Z,5.94
2018-06-12T01:42:39.829Z,5.94
2018-06-12T01:42:52.241Z,5.94
2018-06-12T01:43:04.658Z,5.94
2018-06-12T01:43:17.120Z,5.94
2018-06-12T01:43:29.553Z,5.94
2018-06-12T01:43:42.003Z,5.94
2018-06-12T01:43:54.410Z,5.94
2018-06-12T01:44:06.824Z,5.94
2018-06-12T01:44:19.235Z,5.94
2018-06-12T01:44:31.645Z,5.94
2018-06-12T01:44:44.059Z,6.79
2018-06-12T01:44:56.475Z,6.79
2018-06-12T01:45:08.906Z,6.79
2018-06-12T01:45:21.323Z,6.79
2018-06-12T01:45:33.726Z,6.79
2018-06-12T01:45:46.143Z,6.79
2018-06-12T01:45:58.732Z,6.79
2018-06-12T01:46:11.152Z,6.79
2018-06-12T01:46:23.592Z,6.79
2018-06-12T01:46:36.003Z,6.79
2018-06-12T01:46:48.468Z,6.79
2018-06-12T01:47:00.888Z,6.79
2018-06-12T01:47:13.304Z,6.79
2018-06-12T01:47:25.716Z,6.79
2018-06-12T01:47:38.117Z,6.79
2018-06-12T01:47:50.546Z,6.79
2018-06-12T01:48:02.937Z,6.79
2018-06-12T01:48:15.341Z,6.79
2018-06-12T01:48:27.784Z,6.79
2018-06-12T01:48:40.318Z,6.79
2018-06-12T01:48:52.730Z,6.79
2018-06-12T01:49:05.132Z,6.79
2018-06-12T01:49:17.550Z,6.79
2018-06-12T01:49:29.961Z,6.79
2018-06-12T01:49:42.374Z,6.79
2018-06-12T01:49:54.794Z,6.79
2018-06-12T01:50:07.213Z,6.79
2018-06-12T01:50:19.600Z,6.79
2018-06-12T01:50:31.996Z,6.79
2018-06-12T01:50:44.388Z,6.79
2018-06-12T01:50:56.802Z,6.79
2018-06-12T01:51:09.303Z,6.79
2018-06-12T01:51:21.726Z,6.79
2018-06-12T01:51:34.158Z,6.79
2018-06-12T01:51:46.559Z,6.79
2018-06-12T01:51:58.955Z,6.79
2018-06-12T01:52:11.366Z,6.79
2018-06-12T01:52:23.762Z,6.79
2018-06-12T01:52:36.169Z,6.79
2018-06-12T01:52:48.578Z,6.79
2018-06-12T01:53:00.984Z,6.79
2018-06-12T01:53:13.461Z,6.79
2018-06-12T01:53:25.857Z,6.79
2018-06-12T01:53:38.253Z,6.79
2018-06-12T01:53:50.675Z,6.79
2018-06-12T01:54:03.074Z,6.79
2018-06-12T01:54:15.502Z,6.79
2018-06-12T01:54:27.919Z,6.79
2018-06-12T01:54:40.326Z,6.79
2018-06-12T01:54:52.793Z,6.3
2018-06-12T01:55:05.213Z,6.3
2018-06-12T01:55:17.651Z,6.3
2018-06-12T01:55:30.119Z,6.3
2018-06-12T01:55:42.721Z,6.3
2018-06-12T01:55:55.130Z,6.3
2018-06-12T01:56:07.571Z,6.3
2018-06-12T01:56:20.007Z,6.3
2018-06-12T01:56:32.410Z,6.3
2018-06-12T01:56:44.818Z,6.3
2018-06-12T01:56:57.214Z,6.3
2018-06-12T01:57:09.637Z,6.3
2018-06-12T01:57:22.261Z,6.3
2018-06-12T01:57:34.676Z,6.3
2018-06-12T01:57:47.087Z,6.3
2018-06-12T01:57:59.488Z,6.3
2018-06-12T01:58:11.906Z,6.3
2018-06-12T01:58:24.311Z,6.3
2018-06-12T01:58:36.741Z,6.3
2018-06-12T01:58:49.150Z,6.3
2018-06-12T01:59:01.571Z,6.3
2018-06-12T01:59:13.965Z,6.3
2018-06-12T01:59:26.361Z,6.3
2018-06-12T01:59:38.751Z,6.3
2018-06-12T01:59:51.150Z,6.3
2018-06-12T02:00:03.573Z,6.3
2018-06-12T02:00:15.975Z,6.3
2018-06-12T02:00:28.386Z,6.3
2018-06-12T02:00:40.829Z,6.3
2018-06-12T02:00:53.359Z,6.3
2018-06-12T02:01:05.813Z,6.3
2018-06-12T02:01:18.245Z,6.3
2018-06-12T02:01:30.674Z,6.3
2018-06-12T02:01:43.148Z,6.3
2018-06-12T02:01:55.557Z,6.3
2018-06-12T02:02:08.024Z,6.3
2018-06-12T02:02:20.521Z,6.3
2018-06-12T02:02:33.187Z,6.3
2018-06-12T02:02:45.626Z,6.3
2018-06-12T02:02:58.061Z,6.3
2018-06-12T02:03:10.469Z,6.3
2018-06-12T02:03:22.891Z,6.3
2018-06-12T02:03:35.296Z,6.3
2018-06-12T02:03:47.694Z,6.3
2018-06-12T02:04:00.095Z,6.3
2018-06-12T02:04:12.527Z,6.3
2018-06-12T02:04:24.972Z,6.3
2018-06-12T02:04:37.383Z,6.3
2018-06-12T02:04:49.791Z,6.12
2018-06-12T02:05:02.204Z,6.12
2018-06-12T02:05:14.678Z,6.12
2018-06-12T02:05:27.101Z,6.12
2018-06-12T02:05:39.501Z,6.12
2018-06-12T02:05:51.920Z,6.12
2018-06-12T02:06:04.320Z,6.12
2018-06-12T02:06:16.725Z,6.12
2018-06-12T02:06:29.134Z,6.12
2018-06-12T02:06:41.539Z,6.12
2018-06-12T02:06:54.096Z,6.12
2018-06-12T02:07:06.522Z,6.12
2018-06-12T02:07:18.933Z,6.12
2018-06-12T02:07:31.341Z,6.12
2018-06-12T02:07:43.749Z,6.12
2018-06-12T02:07:56.182Z,6.12
2018-06-12T02:08:08.595Z,6.12
2018-06-12T02:08:20.986Z,6.12
2018-06-12T02:08:33.422Z,6.12
2018-06-12T02:08:45.852Z,6.12
2018-06-12T02:08:58.272Z,6.12
2018-06-12T02:09:10.714Z,6.12
2018-06-12T02:09:23.145Z,6.12
2018-06-12T02:09:35.548Z,6.12
2018-06-12T02:09:47.967Z,6.12
2018-06-12T02:10:00.367Z,6.12
2018-06-12T02:10:12.773Z,6.12
2018-06-12T02:10:25.208Z,6.12
2018-06-12T02:10:37.610Z,6.12
2018-06-12T02:10:50.031Z,6.12
2018-06-12T02:11:02.464Z,6.12
2018-06-12T02:11:15.032Z,6.12
2018-06-12T02:11:27.416Z,6.12
2018-06-12T02:11:39.834Z,6.12
2018-06-12T02:11:52.229Z,6.12
2018-06-12T02:12:04.679Z,6.12
2018-06-12T02:12:17.115Z,6.12
2018-06-12T02:12:29.554Z,6.12
2018-06-12T02:12:41.991Z,6.12
2018-06-12T02:12:54.399Z,6.12
2018-06-12T02:13:06.819Z,6.12
2018-06-12T02:13:19.252Z,6.12
2018-06-12T02:13:31.684Z,6.12
2018-06-12T02:13:44.115Z,6.12
2018-06-12T02:13:56.554Z,6.12
2018-06-12T02:14:08.970Z,6.12
2018-06-12T02:14:21.400Z,6.12
2018-06-12T02:14:33.829Z,6.12
2018-06-12T02:14:46.293Z,6.21
2018-06-12T02:14:58.728Z,6.21
2018-06-12T02:15:11.147Z,6.21
2018-06-12T02:15:23.547Z,6.21
2018-06-12T02:15:36.007Z,6.21
2018-06-12T02:15:48.402Z,6.21
2018-06-12T02:16:00.802Z,6.21
2018-06-12T02:16:13.251Z,6.21
2018-06-12T02:16:25.668Z,6.21
2018-06-12T02:16:38.067Z,6.21
2018-06-12T02:16:50.487Z,6.21
2018-06-12T02:17:02.945Z,6.21
2018-06-12T02:17:15.378Z,6.21
2018-06-12T02:17:27.780Z,6.21
2018-06-12T02:17:40.177Z,6.21
2018-06-12T02:17:52.634Z,6.21
2018-06-12T02:18:05.204Z,6.21
2018-06-12T02:18:17.612Z,6.21
2018-06-12T02:18:30.010Z,6.21
2018-06-12T02:18:42.434Z,6.21
2018-06-12T02:18:54.861Z,6.21
2018-06-12T02:19:07.269Z,6.21
2018-06-12T02:19:19.681Z,6.21
2018-06-12T02:19:32.082Z,6.21
2018-06-12T02:19:44.480Z,6.21
2018-06-12T02:19:56.944Z,6.21
2018-06-12T02:20:09.497Z,6.21
2018-06-12T02:20:21.892Z,6.21
2018-06-12T02:20:34.291Z,6.21
2018-06-12T02:20:46.726Z,6.21
2018-06-12T02:20:59.171Z,6.21
2018-06-12T02:21:11.570Z,6.21
2018-06-12T02:21:23.971Z,6.21
2018-06-12T02:21:36.377Z,6.21
2018-06-12T02:21:48.786Z,6.21
2018-06-12T02:22:01.199Z,6.21
2018-06-12T02:22:13.605Z,6.21
2018-06-12T02:22:26.002Z,6.21
2018-06-12T02:22:38.416Z,6.21
2018-06-12T02:22:50.808Z,6.21
2018-06-12T02:23:03.215Z,6.21
2018-06-12T02:23:15.633Z,6.21
2018-06-12T02:23:28.040Z,6.21
2018-06-12T02:23:40.451Z,6.21
2018-06-12T02:23:52.924Z,6.21
2018-06-12T02:24:05.342Z,6.21
2018-06-12T02:24:17.754Z,6.21
2018-06-12T02:24:30.179Z,6.21
2018-06-12T02:24:42.597Z,6.21
2018-06-12T02:24:54.989Z,7.85
2018-06-12T02:25:07.502Z,7.85
2018-06-12T02:25:19.894Z,7.85
2018-06-12T02:25:32.553Z,7.85
2018-06-12T02:25:44.962Z,7.85
2018-06-12T02:25:57.370Z,7.85
2018-06-12T02:26:09.808Z,7.85
2018-06-12T02:26:22.225Z,7.85
2018-06-12T02:26:34.661Z,7.85
2018-06-12T02:26:47.090Z,7.85
2018-06-12T02:26:59.515Z,7.85
2018-06-12T02:27:11.934Z,7.85
2018-06-12T02:27:24.349Z,7.85
2018-06-12T02:27:36.776Z,7.85
2018-06-12T02:27:49.174Z,7.85
2018-06-12T02:28:01.587Z,7.85
2018-06-12T02:28:14.071Z,7.85
2018-06-12T02:28:26.475Z,7.85
2018-06-12T02:28:38.871Z,7.85
2018-06-12T02:28:51.283Z,7.85
2018-06-12T02:29:03.683Z,7.85
2018-06-12T02:29:16.110Z,7.85
2018-06-12T02:29:28.516Z,7.85
2018-06-12T02:29:40.922Z,7.85
2018-06-12T02:29:53.320Z,7.85
2018-06-12T02:30:05.782Z,7.85
2018-06-12T02:30:18.200Z,7.85
2018-06-12T02:30:30.691Z,7.85
2018-06-12T02:30:43.124Z,7.85
2018-06-12T02:30:55.557Z,7.85
2018-06-12T02:31:08.055Z,7.85
2018-06-12T02:31:20.518Z,7.85
2018-06-12T02:31:32.941Z,7.85
2018-06-12T02:31:45.413Z,7.85
2018-06-12T02:31:57.843Z,7.85
2018-06-12T02:32:10.339Z,7.85
2018-06-12T02:32:22.775Z,7.85
2018-06-12T02:32:35.219Z,7.85
2018-06-12T02:32:47.662Z,7.85
2018-06-12T02:33:00.113Z,7.85
2018-06-12T02:33:12.712Z,7.85
2018-06-12T02:33:25.127Z,7.85
2018-06-12T02:33:37.632Z,7.85
2018-06-12T02:33:50.053Z,7.85
2018-06-12T02:34:02.480Z,7.85
2018-06-12T02:34:14.953Z,7.85
2018-06-12T02:34:27.376Z,7.85
2018-06-12T02:34:39.811Z,7.85
2018-06-12T02:34:52.248Z,9.9
2018-06-12T02:35:04.686Z,9.9
2018-06-12T02:35:17.082Z,9.9
2018-06-12T02:35:29.510Z,9.9
2018-06-12T02:35:41.924Z,9.9
2018-06-12T02:35:54.335Z,9.9
2018-06-12T02:36:06.796Z,9.9
2018-06-12T02:36:19.238Z,9.9
2018-06-12T02:36:31.684Z,9.9
2018-06-12T02:36:44.105Z,9.9
2018-06-12T02:36:56.549Z,9.9
2018-06-12T02:37:08.993Z,9.9
2018-06-12T02:37:21.417Z,9.9
2018-06-12T02:37:33.852Z,9.9
2018-06-12T02:37:46.264Z,9.9
2018-06-12T02:37:58.837Z,9.9
2018-06-12T02:38:11.332Z,9.9
2018-06-12T02:38:23.976Z,9.9
2018-06-12T02:38:36.394Z,9.9
2018-06-12T02:38:48.842Z,9.9
2018-06-12T02:39:01.260Z,9.9
2018-06-12T02:39:13.694Z,9.9
2018-06-12T02:39:26.150Z,9.9
2018-06-12T02:39:38.608Z,9.9
2018-06-12T02:39:51.047Z,9.9
2018-06-12T02:40:03.474Z,9.9
2018-06-12T02:40:15.946Z,9.9
2018-06-12T02:40:28.409Z,9.9
2018-06-12T02:40:40.829Z,9.9
2018-06-12T02:40:53.266Z,9.9
2018-06-12T02:41:05.760Z,9.9
2018-06-12T02:41:18.203Z,9.9
2018-06-12T02:41:30.640Z,9.9
2018-06-12T02:41:43.071Z,9.9
2018-06-12T02:41:55.523Z,9.9
2018-06-12T02:42:07.946Z,9.9
2018-06-12T02:42:20.381Z,9.9
2018-06-12T02:42:32.804Z,9.9
2018-06-12T02:42:45.218Z,9.9
2018-06-12T02:42:57.653Z,9.9
2018-06-12T02:43:10.139Z,9.9
2018-06-12T02:43:22.596Z,9.9
2018-06-12T02:43:35.293Z,9.9
2018-06-12T02:43:47.753Z,9.9
2018-06-12T02:44:00.185Z,9.9
2018-06-12T02:44:12.619Z,9.9
2018-06-12T02:44:25.127Z,9.9
2018-06-12T02:44:38.344Z,9.9
2018-06-12T02:44:51.388Z,8.34
2018-06-12T02:45:03.837Z,8.34
2018-06-12T02:45:16.257Z,8.34
2018-06-12T02:45:28.702Z,8.34
2018-06-12T02:45:41.146Z,8.34
2018-06-12T02:45:53.573Z,8.34
2018-06-12T02:46:06.196Z,8.34
2018-06-12T02:46:18.630Z,8.34
2018-06-12T02:46:31.055Z,8.34
2018-06-12T02:46:43.478Z,8.34
2018-06-12T02:46:55.871Z,8.34
2018-06-12T02:47:08.337Z,8.34
2018-06-12T02:47:20.803Z,8.34
2018-06-12T02:47:33.233Z,8.34
2018-06-12T02:47:45.657Z,8.34